Time;durP1;ratioP1;P1;durP2;ratioP2;P2;SDS_P1;SDS_P2;PMS_P1;PMS_P2;Temp;Humidity;BMP_temperature;BMP_pressure;BME280_temperature;BME280_humidity;BME280_pressure;Samples;Min_cycle;Max_cycle;Signal;HPM_P1;HPM_P2
2022/06/23 00:00:04;;;;;;;7.10;6.60;;;19.50;92.40;;;;;;5128465;27;20826;-71
2022/06/23 00:02:33;;;;;;;7.10;6.50;;;19.50;93.10;;;;;;5115493;28;20402;-70
2022/06/23 00:05:02;;;;;;;7.60;6.37;;;19.60;93.50;;;;;;5115581;28;20765;-68
2022/06/23 00:07:32;;;;;;;7.50;6.83;;;19.60;93.50;;;;;;5125779;27;20435;-70
2022/06/23 00:10:11;;;;;;;6.90;6.40;;;19.60;93.40;;;;;;5135877;27;20400;-70
2022/06/23 00:12:39;;;;;;;6.83;6.43;;;19.60;93.40;;;;;;5136570;27;20399;-70
2022/06/23 00:15:05;;;;;;;6.87;6.37;;;19.60;93.40;;;;;;5135689;27;20436;-70
2022/06/23 00:17:42;;;;;;;6.27;5.77;;;19.60;93.40;;;;;;5134898;27;20516;-70
2022/06/23 00:20:20;;;;;;;6.90;6.40;;;19.50;93.20;;;;;;5134019;27;20234;-70
2022/06/23 00:22:52;;;;;;;6.97;6.47;;;19.50;93.30;;;;;;5134739;27;20443;-70
2022/06/23 00:25:42;;;;;;;7.20;6.70;;;19.60;93.30;;;;;;5120266;27;20437;-70
2022/06/23 00:28:26;;;;;;;7.87;7.27;;;19.50;93.30;;;;;;5114049;28;20436;-69
2022/06/23 00:30:58;;;;;;;8.07;7.40;;;19.40;93.20;;;;;;5115127;28;20390;-72
2022/06/23 00:33:39;;;;;;;7.80;7.10;;;19.10;93.40;;;;;;5115486;28;20474;-69
2022/06/23 00:36:38;;;;;;;11.67;7.37;;;18.90;94.10;;;;;;5114680;27;20396;-70
2022/06/23 00:39:26;;;;;;;7.83;7.13;;;18.90;94.90;;;;;;5071088;27;20433;-70
2022/06/23 00:41:52;;;;;;;7.13;6.63;;;18.80;94.70;;;;;;5134895;27;20768;-72
2022/06/23 00:44:50;;;;;;;7.20;6.50;;;18.80;94.60;;;;;;5135687;27;20413;-70
2022/06/23 00:47:20;;;;;;;7.70;7.20;;;18.70;94.80;;;;;;5130112;27;20451;-69
2022/06/23 00:49:52;;;;;;;7.90;7.20;;;18.80;95.20;;;;;;5135525;27;20815;-69
2022/06/23 00:52:28;;;;;;;6.73;6.20;;;18.80;95.50;;;;;;5114524;27;20466;-69
2022/06/23 00:54:58;;;;;;;8.43;6.67;;;18.80;95.70;;;;;;5114503;28;20445;-72
2022/06/23 00:57:31;;;;;;;7.13;6.53;;;18.80;96.00;;;;;;5114752;28;20450;-70
2022/06/23 01:00:21;;;;;;;7.17;6.67;;;18.90;96.10;;;;;;5114331;28;20398;-70
2022/06/23 01:03:14;;;;;;;7.97;7.27;;;18.90;96.00;;;;;;5115343;28;20398;-70
2022/06/23 01:05:49;;;;;;;7.53;7.03;;;18.90;95.90;;;;;;5114815;28;20463;-69
2022/06/23 01:08:35;;;;;;;6.47;6.00;;;18.90;95.90;;;;;;5130420;27;20420;-71
2022/06/23 01:11:18;;;;;;;7.00;6.50;;;18.90;96.00;;;;;;5113354;27;20406;-70
2022/06/23 01:13:50;;;;;;;7.77;7.03;;;18.90;95.60;;;;;;5134229;27;20814;-70
2022/06/23 01:16:29;;;;;;;7.00;6.40;;;18.80;95.50;;;;;;5134602;27;20389;-70
2022/06/23 01:19:23;;;;;;;7.50;6.87;;;18.90;95.90;;;;;;5128976;27;20441;-72
2022/06/23 01:21:55;;;;;;;7.83;7.23;;;18.80;95.60;;;;;;5110971;28;20495;-69
2022/06/23 01:25:01;;;;;;;7.13;6.43;;;18.80;95.80;;;;;;5130909;27;20436;-70
2022/06/23 01:27:58;;;;;;;7.80;7.10;;;18.70;96.00;;;;;;5133874;27;20480;-70
2022/06/23 01:30:29;;;;;;;8.20;7.50;;;18.60;96.30;;;;;;5135054;27;20389;-70
2022/06/23 01:33:22;;;;;;;7.50;7.00;;;18.50;97.00;;;;;;5134214;27;20921;-72
2022/06/23 01:36:09;;;;;;;7.33;6.73;;;18.50;97.20;;;;;;5133760;27;20437;-69
2022/06/23 01:38:54;;;;;;;7.73;7.13;;;18.50;97.20;;;;;;5133238;27;20537;-70
2022/06/23 01:41:27;;;;;;;8.67;8.00;;;18.50;97.40;;;;;;5092188;28;20479;-69
2022/06/23 01:44:06;;;;;;;8.30;7.50;;;18.50;97.30;;;;;;5093823;28;20414;-69
2022/06/23 01:46:39;;;;;;;7.70;7.10;;;18.30;97.30;;;;;;5093543;28;20481;-69
2022/06/23 01:49:15;;;;;;;7.87;7.17;;;18.00;97.80;;;;;;5097537;28;20433;-70
2022/06/23 01:51:47;;;;;;;7.20;6.50;;;17.90;98.50;;;;;;5113318;28;20471;-70
2022/06/23 01:54:19;;;;;;;7.27;6.70;;;17.90;98.80;;;;;;5113144;28;20445;-70
2022/06/23 01:56:44;;;;;;;7.30;6.70;;;17.90;98.70;;;;;;5121834;27;20831;-69
2022/06/23 01:59:24;;;;;;;10.07;7.47;;;18.00;98.70;;;;;;5133655;27;20413;-70
2022/06/23 02:01:52;;;;;;;7.63;7.03;;;18.10;98.60;;;;;;5120803;27;20718;-69
2022/06/23 02:04:36;;;;;;;7.70;7.10;;;18.10;98.10;;;;;;5112958;28;20637;-69
2022/06/23 02:07:26;;;;;;;7.83;7.30;;;18.10;98.10;;;;;;5112999;28;20756;-70
2022/06/23 02:09:58;;;;;;;7.13;6.57;;;18.10;98.00;;;;;;5113874;28;20420;-70
2022/06/23 02:12:45;;;;;;;8.90;8.00;;;18.10;97.80;;;;;;5113583;28;20402;-69
2022/06/23 02:15:29;;;;;;;7.50;6.90;;;18.10;98.00;;;;;;5112586;28;20515;-70
2022/06/23 02:18:05;;;;;;;8.50;7.90;;;18.10;98.00;;;;;;5116546;27;20523;-69
2022/06/23 02:20:43;;;;;;;8.03;7.50;;;18.10;98.10;;;;;;5112575;27;20911;-69
2022/06/23 02:23:09;;;;;;;7.70;7.20;;;18.10;98.20;;;;;;5125312;27;20493;-69
2022/06/23 02:25:39;;;;;;;7.83;7.13;;;18.10;98.10;;;;;;5133912;27;20417;-69
2022/06/23 02:28:10;;;;;;;8.23;7.57;;;18.00;98.20;;;;;;5132834;27;20185;-70
2022/06/23 02:30:51;;;;;;;7.53;6.80;;;17.90;98.50;;;;;;5123197;27;20466;-70
2022/06/23 02:33:38;;;;;;;8.13;7.43;;;18.00;98.50;;;;;;5112195;28;20452;-70
2022/06/23 02:36:33;;;;;;;7.70;7.10;;;18.00;98.40;;;;;;5112242;28;20382;-70
2022/06/23 02:39:14;;;;;;;8.60;7.80;;;18.10;98.50;;;;;;5112706;28;20447;-72
2022/06/23 02:41:46;;;;;;;7.33;6.73;;;18.10;98.40;;;;;;5113146;28;20398;-70
2022/06/23 02:44:48;;;;;;;8.43;7.33;;;18.10;98.50;;;;;;5119743;27;20429;-70
2022/06/23 02:47:47;;;;;;;7.80;7.20;;;18.20;98.30;;;;;;5132582;27;20416;-69
2022/06/23 02:50:37;;;;;;;8.63;7.93;;;18.20;98.50;;;;;;5112351;27;20522;-69
2022/06/23 02:53:24;;;;;;;7.27;6.70;;;18.20;97.90;;;;;;5112144;28;20452;-69
2022/06/23 02:56:09;;;;;;;8.23;7.63;;;18.30;98.10;;;;;;5115577;28;20502;-70
2022/06/23 02:58:38;;;;;;;8.03;7.43;;;18.40;98.50;;;;;;5132428;27;20413;-70
2022/06/23 03:01:11;;;;;;;7.57;7.07;;;18.40;98.60;;;;;;5131365;27;20420;-69
2022/06/23 03:03:55;;;;;;;7.53;6.93;;;18.40;98.70;;;;;;5114947;27;20442;-69
2022/06/23 03:06:40;;;;;;;7.70;7.20;;;18.40;98.80;;;;;;5129546;27;21108;-69
2022/06/23 03:09:30;;;;;;;7.33;6.73;;;18.50;98.90;;;;;;5132645;27;20400;-70
2022/06/23 03:12:05;;;;;;;7.70;7.20;;;18.50;98.50;;;;;;5133482;27;20389;-69
2022/06/23 03:14:32;;;;;;;8.23;7.53;;;18.50;98.70;;;;;;5133296;27;20448;-69
2022/06/23 03:17:07;;;;;;;7.20;6.70;;;18.50;98.70;;;;;;5132943;28;20452;-69
2022/06/23 03:19:40;;;;;;;8.80;7.93;;;18.40;98.30;;;;;;5117934;28;20541;-69
2022/06/23 03:22:10;;;;;;;7.77;7.20;;;18.40;98.10;;;;;;5112183;28;20447;-69
2022/06/23 03:24:41;;;;;;;8.83;8.03;;;18.40;98.10;;;;;;5112566;28;20810;-69
2022/06/23 03:27:15;;;;;;;8.77;8.17;;;18.40;98.20;;;;;;5121240;28;20456;-70
2022/06/23 03:29:44;;;;;;;8.20;7.70;;;18.40;98.40;;;;;;5133083;28;20475;-69
2022/06/23 03:32:18;;;;;;;8.80;7.90;;;18.50;98.70;;;;;;5132230;28;20421;-69
2022/06/23 03:34:54;;;;;;;7.73;7.13;;;18.50;98.70;;;;;;5120445;28;20510;-69
2022/06/23 03:37:43;;;;;;;7.63;7.13;;;18.50;98.80;;;;;;5111716;28;20410;-69
2022/06/23 03:43:12;;;;;;;8.03;7.43;;;18.50;99.00;;;;;;5132760;27;20397;-71
2022/06/23 03:45:45;;;;;;;7.60;6.90;;;18.50;99.10;;;;;;5131451;28;20507;-68
2022/06/23 03:48:32;;;;;;;8.00;7.27;;;18.50;99.20;;;;;;5125714;28;20464;-69
2022/06/23 03:51:10;;;;;;;11.30;10.17;;;18.50;99.10;;;;;;5112726;28;20413;-68
2022/06/23 03:53:51;;;;;;;8.90;8.10;;;18.50;99.00;;;;;;5113603;28;20474;-68
2022/06/23 03:56:26;;;;;;;8.10;7.53;;;18.50;98.90;;;;;;5132094;28;20771;-69
2022/06/23 03:58:55;;;;;;;7.67;7.17;;;18.50;99.00;;;;;;5132906;28;20446;-69
2022/06/23 04:01:38;;;;;;;8.13;7.60;;;18.50;99.10;;;;;;5132244;28;20430;-69
2022/06/23 04:04:16;;;;;;;8.80;8.20;;;18.50;99.00;;;;;;5130591;28;20439;-72
2022/06/23 04:06:47;;;;;;;8.47;7.87;;;18.50;99.20;;;;;;5132864;28;20997;-69
2022/06/23 04:09:16;;;;;;;9.27;8.67;;;18.50;99.20;;;;;;5131865;28;20464;-69
2022/06/23 04:12:08;;;;;;;10.37;8.30;;;18.50;99.40;;;;;;5131416;28;20935;-69
2022/06/23 04:14:40;;;;;;;9.40;8.70;;;18.50;99.80;;;;;;5124030;27;20461;-69
2022/06/23 04:17:09;;;;;;;8.67;8.07;;;18.50;99.90;;;;;;5130554;28;20777;-71
2022/06/23 04:19:36;;;;;;;29.47;26.13;;;18.50;99.80;;;;;;5114594;27;20442;-69
2022/06/23 04:22:16;;;;;;;18.37;16.73;;;18.50;99.50;;;;;;5111480;28;20555;-69
2022/06/23 04:24:44;;;;;;;10.43;9.53;;;18.40;99.10;;;;;;5108492;27;20518;-68
2022/06/23 04:27:20;;;;;;;10.50;9.60;;;18.40;99.30;;;;;;5134258;27;20447;-69
2022/06/23 04:29:55;;;;;;;9.50;8.70;;;18.40;99.60;;;;;;5135337;27;20424;-69
2022/06/23 04:32:25;;;;;;;9.60;8.70;;;18.30;99.60;;;;;;5135683;27;20420;-69
2022/06/23 04:34:57;;;;;;;10.40;9.30;;;18.30;99.60;;;;;;5134883;27;20537;-69
2022/06/23 04:37:49;;;;;;;10.50;9.47;;;18.20;99.50;;;;;;5132416;27;20428;-69
2022/06/23 04:40:20;;;;;;;9.63;8.93;;;18.20;99.70;;;;;;5095749;27;20542;-69
2022/06/23 04:42:58;;;;;;;10.97;9.87;;;18.20;99.60;;;;;;5135727;27;20400;-70
2022/06/23 04:46:02;;;;;;;10.23;9.33;;;18.20;99.70;;;;;;5129426;27;21003;-68
2022/06/23 04:48:33;;;;;;;17.40;15.60;;;18.30;99.70;;;;;;5104013;27;20433;-68
2022/06/23 04:51:17;;;;;;;10.30;9.30;;;18.30;99.80;;;;;;5115543;28;20432;-68
2022/06/23 04:54:14;;;;;;;8.43;7.70;;;18.20;99.20;;;;;;5129753;27;20464;-69
2022/06/23 04:56:43;;;;;;;10.83;8.37;;;18.10;99.40;;;;;;5120849;27;20448;-68
2022/06/23 04:59:44;;;;;;;8.93;8.30;;;18.10;99.80;;;;;;5132310;27;20744;-71
2022/06/23 05:02:21;;;;;;;8.73;7.83;;;18.10;99.90;;;;;;5090412;27;20866;-69
2022/06/23 05:04:54;;;;;;;10.03;9.23;;;18.20;99.90;;;;;;5110315;28;20543;-70
2022/06/23 05:07:42;;;;;;;8.77;8.17;;;18.40;99.90;;;;;;5105581;27;20448;-69
2022/06/23 05:10:21;;;;;;;9.03;8.30;;;18.40;99.60;;;;;;5113958;27;20440;-70
2022/06/23 05:13:19;;;;;;;9.13;8.33;;;18.40;99.20;;;;;;5122014;27;20412;-69
2022/06/23 05:16:32;;;;;;;10.10;9.30;;;18.40;99.20;;;;;;5132555;27;20912;-69
2022/06/23 05:19:00;;;;;;;7.70;7.10;;;18.50;99.60;;;;;;5107485;27;20445;-68
2022/06/23 05:21:28;;;;;;;11.43;10.53;;;18.50;99.70;;;;;;5117811;27;20473;-65
2022/06/23 05:24:17;;;;;;;9.33;8.50;;;18.70;99.50;;;;;;5114709;27;20516;-65
2022/06/23 05:27:02;;;;;;;9.40;8.50;;;18.90;99.10;;;;;;5107371;28;20421;-65
2022/06/23 05:29:42;;;;;;;9.57;8.60;;;18.90;99.10;;;;;;5121949;27;20442;-65
2022/06/23 05:32:36;;;;;;;8.43;7.60;;;19.00;98.80;;;;;;5129946;27;20401;-65
2022/06/23 05:35:15;;;;;;;8.80;8.00;;;19.10;98.80;;;;;;5113362;28;20847;-65
2022/06/23 05:37:52;;;;;;;10.50;9.60;;;19.20;99.20;;;;;;5118110;27;20507;-65
2022/06/23 05:40:24;;;;;;;10.47;9.47;;;19.30;99.50;;;;;;5116438;27;20486;-66
2022/06/23 05:42:54;;;;;;;10.43;8.90;;;19.30;99.90;;;;;;5117483;27;20825;-65
2022/06/23 05:45:26;;;;;;;10.27;9.37;;;19.40;99.90;;;;;;5128391;27;20507;-65
2022/06/23 05:47:53;;;;;;;11.83;10.73;;;19.50;99.90;;;;;;5114952;27;20429;-65
2022/06/23 05:50:42;;;;;;;17.37;10.60;;;19.60;99.90;;;;;;5115710;27;20438;-65
2022/06/23 05:53:16;;;;;;;12.30;11.00;;;19.60;99.90;;;;;;5106933;28;20425;-65
2022/06/23 05:55:54;;;;;;;11.00;10.00;;;19.70;99.90;;;;;;5125606;27;20428;-67
2022/06/23 05:58:33;;;;;;;11.97;10.77;;;19.80;99.90;;;;;;5111576;27;20460;-65
2022/06/23 06:01:04;;;;;;;11.07;9.23;;;19.90;99.90;;;;;;5118922;27;20836;-66
2022/06/23 06:03:42;;;;;;;11.93;10.93;;;20.00;99.90;;;;;;5126982;27;20472;-65
2022/06/23 06:06:08;;;;;;;11.60;10.60;;;20.00;99.90;;;;;;5128551;27;20518;-65
2022/06/23 06:11:46;;;;;;;10.93;10.03;;;20.20;99.90;;;;;;5112701;27;20490;-66
2022/06/23 06:14:17;;;;;;;10.17;9.47;;;20.30;99.60;;;;;;5127767;27;20464;-64
2022/06/23 06:16:43;;;;;;;9.33;8.60;;;20.40;99.40;;;;;;5128946;27;20920;-67
2022/06/23 06:19:14;;;;;;;9.80;8.80;;;20.50;98.90;;;;;;5091197;28;20430;-64
2022/06/23 06:21:40;;;;;;;10.60;9.37;;;20.50;98.60;;;;;;5125359;27;20482;-65
2022/06/23 06:24:14;;;;;;;9.40;8.60;;;20.60;98.50;;;;;;5114119;27;20429;-64
2022/06/23 06:26:44;;;;;;;10.10;9.17;;;20.70;98.20;;;;;;5113087;28;20163;-64
2022/06/23 06:29:31;;;;;;;9.30;8.60;;;20.80;98.40;;;;;;5117213;27;20437;-69
2022/06/23 06:32:12;;;;;;;10.13;9.30;;;21.00;98.40;;;;;;5123908;27;20472;-64
2022/06/23 06:34:50;;;;;;;7.83;7.33;;;21.00;96.80;;;;;;5132099;27;20467;-65
2022/06/23 06:37:17;;;;;;;7.10;6.60;;;21.10;96.30;;;;;;5127998;27;20814;-65
2022/06/23 06:39:53;;;;;;;9.57;8.67;;;21.30;96.90;;;;;;5122687;27;20443;-65
2022/06/23 06:42:30;;;;;;;8.70;7.90;;;21.40;96.60;;;;;;5114446;27;20771;-65
2022/06/23 06:44:58;;;;;;;7.00;6.37;;;21.50;96.40;;;;;;5127318;27;20409;-65
2022/06/23 06:47:37;;;;;;;7.30;6.70;;;21.60;96.30;;;;;;5118761;27;20418;-65
2022/06/23 06:50:31;;;;;;;10.67;9.70;;;21.70;96.30;;;;;;5094097;27;20403;-65
2022/06/23 06:53:01;;;;;;;8.40;7.80;;;21.80;96.40;;;;;;5109355;27;20424;-65
2022/06/23 06:55:38;;;;;;;7.80;7.17;;;21.90;96.40;;;;;;5133330;27;20416;-65
2022/06/23 06:58:10;;;;;;;8.70;7.97;;;22.00;95.70;;;;;;5126439;27;20794;-65
2022/06/23 07:00:59;;;;;;;7.63;6.93;;;22.20;96.10;;;;;;5101150;28;20803;-65
2022/06/23 07:03:25;;;;;;;6.53;6.03;;;22.30;95.90;;;;;;5117122;27;20445;-65
2022/06/23 07:06:15;;;;;;;6.17;5.70;;;22.40;95.40;;;;;;5122890;27;20432;-66
2022/06/23 07:08:47;;;;;;;6.50;6.07;;;22.60;95.50;;;;;;5117123;27;20950;-66
2022/06/23 07:11:19;;;;;;;6.83;6.27;;;22.80;94.70;;;;;;5124261;27;20524;-68
2022/06/23 07:13:56;;;;;;;5.30;4.90;;;22.90;95.00;;;;;;5110367;27;20469;-65
2022/06/23 07:16:35;;;;;;;6.13;5.53;;;23.00;94.10;;;;;;5112270;28;20429;-65
2022/06/23 07:19:16;;;;;;;7.77;6.97;;;23.20;95.30;;;;;;5117536;28;20484;-65
2022/06/23 07:22:26;;;;;;;7.70;7.07;;;23.40;93.90;;;;;;5113140;28;20473;-65
2022/06/23 07:25:26;;;;;;;8.27;7.50;;;23.50;93.70;;;;;;5106229;28;20469;-65
2022/06/23 07:27:57;;;;;;;8.63;7.87;;;23.80;94.50;;;;;;5084005;28;20944;-65
2022/06/23 07:30:35;;;;;;;9.67;8.63;;;23.90;94.50;;;;;;5131676;28;20787;-65
2022/06/23 07:33:21;;;;;;;10.13;9.33;;;24.10;93.10;;;;;;5131761;28;20775;-65
2022/06/23 07:36:07;;;;;;;9.17;7.93;;;24.30;93.50;;;;;;5099322;28;20426;-65
2022/06/23 07:38:46;;;;;;;8.73;7.97;;;24.50;92.70;;;;;;5110393;28;20436;-65
2022/06/23 07:41:19;;;;;;;8.47;7.57;;;24.70;92.90;;;;;;5116479;28;20428;-65
2022/06/23 07:44:02;;;;;;;10.20;9.40;;;24.80;91.90;;;;;;5113151;28;20418;-65
2022/06/23 07:46:30;;;;;;;7.97;7.37;;;25.00;92.50;;;;;;5112229;28;20790;-65
2022/06/23 07:48:56;;;;;;;7.10;6.50;;;25.10;88.00;;;;;;5112487;28;20471;-65
2022/06/23 07:51:22;;;;;;;7.10;6.60;;;25.20;88.70;;;;;;5110650;28;20433;-65
2022/06/23 07:53:50;;;;;;;8.10;7.50;;;25.20;87.50;;;;;;5112460;28;20468;-65
2022/06/23 07:56:28;;;;;;;7.47;6.87;;;25.40;87.90;;;;;;5118320;28;20455;-69
2022/06/23 07:59:14;;;;;;;8.50;7.60;;;25.50;83.90;;;;;;5134512;27;20401;-64
2022/06/23 08:01:50;;;;;;;11.07;6.60;;;25.60;86.00;;;;;;5126058;27;20427;-66
2022/06/23 08:04:32;;;;;;;6.70;6.30;;;25.80;87.40;;;;;;5120017;27;20439;-69
2022/06/23 08:07:03;;;;;;;8.03;7.43;;;26.00;84.70;;;;;;5092457;28;20429;-65
2022/06/23 08:09:34;;;;;;;7.03;6.60;;;26.10;83.90;;;;;;5111286;28;20405;-65
2022/06/23 08:17:51;;;;;;;7.33;6.93;;;26.40;79.50;;;;;;5124238;27;20528;-65
2022/06/23 08:20:21;;;;;;;7.97;7.37;;;26.60;78.80;;;;;;5122051;27;20587;-65
2022/06/23 08:22:48;;;;;;;7.50;6.97;;;26.70;77.20;;;;;;5136323;27;20497;-65
2022/06/23 08:25:20;;;;;;;7.63;7.13;;;26.80;81.00;;;;;;5136288;27;20508;-65
2022/06/23 08:27:52;;;;;;;7.20;6.67;;;27.00;79.70;;;;;;5135084;27;20421;-66
2022/06/23 08:30:18;;;;;;;8.17;7.77;;;27.10;77.20;;;;;;5136263;27;20466;-70
2022/06/23 08:32:47;;;;;;;7.20;6.60;;;27.20;75.70;;;;;;5136494;27;20413;-65
2022/06/23 08:35:37;;;;;;;7.80;7.30;;;27.40;77.50;;;;;;5136406;27;20440;-65
2022/06/23 08:38:15;;;;;;;7.70;7.00;;;27.50;77.10;;;;;;5136572;27;20397;-66
2022/06/23 08:40:59;;;;;;;7.50;6.90;;;27.60;72.10;;;;;;5135917;27;20397;-66
2022/06/23 08:43:42;;;;;;;7.10;6.70;;;27.70;75.00;;;;;;5135892;27;20416;-65
2022/06/23 08:46:23;;;;;;;6.90;6.50;;;27.70;72.90;;;;;;5121853;27;20448;-65
2022/06/23 08:49:03;;;;;;;7.17;6.67;;;27.80;73.20;;;;;;5115515;28;20463;-65
2022/06/23 08:51:50;;;;;;;7.33;6.93;;;27.90;70.70;;;;;;5113697;28;20827;-65
2022/06/23 08:54:25;;;;;;;7.27;6.67;;;28.00;74.90;;;;;;5115641;28;20463;-65
2022/06/23 08:56:57;;;;;;;9.83;9.23;;;28.10;71.80;;;;;;5115474;28;20421;-65
2022/06/23 08:59:39;;;;;;;7.97;7.37;;;28.20;74.30;;;;;;5114619;28;20411;-66
2022/06/23 09:02:35;;;;;;;7.90;7.40;;;28.40;75.20;;;;;;5115582;28;20386;-65
2022/06/23 09:05:23;;;;;;;7.67;7.07;;;28.50;70.10;;;;;;5086100;28;20504;-66
2022/06/23 09:08:06;;;;;;;6.90;6.50;;;28.70;68.90;;;;;;5109282;28;20508;-66
2022/06/23 09:10:58;;;;;;;11.30;7.07;;;28.70;65.90;;;;;;5112245;28;20426;-66
2022/06/23 09:13:46;;;;;;;7.17;6.67;;;28.80;67.30;;;;;;5114564;28;20528;-66
2022/06/23 09:16:29;;;;;;;7.27;6.77;;;28.80;64.90;;;;;;5113530;28;20425;-65
2022/06/23 09:19:21;;;;;;;7.60;7.07;;;28.90;64.20;;;;;;5111908;28;20532;-66
2022/06/23 09:22:25;;;;;;;6.73;6.30;;;28.80;62.30;;;;;;5094861;28;20515;-66
2022/06/23 09:25:35;;;;;;;7.30;6.80;;;29.00;64.00;;;;;;5094716;28;20425;-65
2022/06/23 09:28:18;;;;;;;7.30;6.70;;;29.00;62.80;;;;;;5012258;28;20428;-66
2022/06/23 09:30:44;;;;;;;7.07;6.60;;;29.10;61.60;;;;;;5090104;28;20510;-66
2022/06/23 09:33:30;;;;;;;7.63;7.03;;;29.20;62.20;;;;;;5093268;28;20502;-65
2022/06/23 09:36:04;;;;;;;7.57;6.63;;;29.30;60.00;;;;;;5094551;28;20251;-65
2022/06/23 09:38:42;;;;;;;6.93;6.53;;;29.30;62.80;;;;;;5093812;28;20410;-66
2022/06/23 09:41:10;;;;;;;7.47;7.07;;;29.40;60.80;;;;;;5094301;28;20473;-66
2022/06/23 09:43:56;;;;;;;6.73;6.03;;;29.60;59.60;;;;;;5093695;28;20472;-65
2022/06/23 09:46:25;;;;;;;6.77;6.37;;;29.60;61.10;;;;;;5093604;28;20418;-69
2022/06/23 09:48:56;;;;;;;6.70;6.20;;;29.70;60.10;;;;;;5101291;28;20437;-64
2022/06/23 09:51:31;;;;;;;6.60;6.30;;;29.80;58.70;;;;;;5112869;28;20438;-68
2022/06/23 09:54:36;;;;;;;7.30;6.80;;;29.60;57.70;;;;;;5114078;28;20448;-64
2022/06/23 09:57:36;;;;;;;6.97;6.57;;;29.70;57.20;;;;;;5100962;28;20800;-64
2022/06/23 10:00:07;;;;;;;6.93;6.63;;;29.60;58.80;;;;;;5114238;28;20430;-65
2022/06/23 10:03:12;;;;;;;7.00;6.50;;;29.70;57.60;;;;;;5113581;28;20440;-65
2022/06/23 10:06:03;;;;;;;7.40;6.87;;;29.90;58.30;;;;;;5113659;28;20397;-65
2022/06/23 10:08:41;;;;;;;7.23;6.83;;;30.00;57.30;;;;;;5113389;28;20398;-65
2022/06/23 10:11:32;;;;;;;7.80;7.20;;;30.10;58.60;;;;;;5114051;28;20462;-65
2022/06/23 10:14:03;;;;;;;6.97;6.67;;;30.10;55.40;;;;;;5114057;28;20913;-65
2022/06/23 10:16:47;;;;;;;7.50;6.97;;;30.00;56.00;;;;;;5113598;28;20438;-65
2022/06/23 10:19:12;;;;;;;7.33;6.87;;;30.20;56.50;;;;;;5111488;28;20450;-65
2022/06/23 10:22:00;;;;;;;6.80;6.37;;;30.30;56.10;;;;;;5112908;28;20534;-65
2022/06/23 10:25:14;;;;;;;7.30;6.67;;;30.30;55.90;;;;;;5113341;28;20210;-65
2022/06/23 10:28:11;;;;;;;8.93;8.50;;;30.30;55.70;;;;;;5104434;28;20963;-65
2022/06/23 10:31:00;;;;;;;7.50;6.90;;;30.30;54.20;;;;;;5113190;28;20394;-65
2022/06/23 10:33:32;;;;;;;7.90;7.40;;;30.40;55.90;;;;;;5112862;28;20441;-66
2022/06/23 10:36:23;;;;;;;7.47;6.97;;;30.50;57.00;;;;;;5113662;28;20409;-65
2022/06/23 10:39:02;;;;;;;7.73;7.23;;;30.60;54.70;;;;;;5113025;28;20406;-65
2022/06/23 10:41:34;;;;;;;7.23;6.90;;;30.70;56.70;;;;;;5112903;28;20417;-65
2022/06/23 10:44:27;;;;;;;7.10;6.67;;;30.80;55.70;;;;;;5113357;28;20424;-65
2022/06/23 10:47:16;;;;;;;7.83;7.33;;;30.80;55.40;;;;;;5113001;28;20421;-65
2022/06/23 10:49:51;;;;;;;7.47;7.07;;;30.80;55.10;;;;;;5110545;28;20827;-65
2022/06/23 10:53:10;;;;;;;7.67;7.20;;;31.00;56.10;;;;;;5113344;28;20413;-65
2022/06/23 10:55:50;;;;;;;8.23;7.63;;;30.80;54.40;;;;;;5049851;28;20931;-65
2022/06/23 10:58:35;;;;;;;8.73;8.20;;;30.70;55.20;;;;;;5050544;28;20878;-65
2022/06/23 11:01:21;;;;;;;7.50;7.00;;;30.80;55.70;;;;;;5050146;28;20837;-65
2022/06/23 11:04:00;;;;;;;7.57;7.03;;;30.80;53.40;;;;;;5049623;28;20678;-65
2022/06/23 11:07:00;;;;;;;8.20;7.80;;;30.90;54.00;;;;;;5033575;28;20409;-65
2022/06/23 11:09:52;;;;;;;7.50;7.10;;;31.00;56.80;;;;;;5050201;28;20428;-65
2022/06/23 11:12:47;;;;;;;8.67;8.00;;;31.00;51.90;;;;;;5050543;28;20785;-65
2022/06/23 11:15:25;;;;;;;7.63;7.10;;;31.10;52.20;;;;;;5050142;28;20456;-65
2022/06/23 11:18:22;;;;;;;7.47;6.97;;;31.30;53.10;;;;;;5048527;28;20436;-65
2022/06/23 11:20:48;;;;;;;7.27;6.87;;;31.30;52.50;;;;;;5048573;28;20635;-65
2022/06/23 11:23:51;;;;;;;7.40;6.90;;;31.30;53.10;;;;;;5050046;28;20420;-65
2022/06/23 11:26:51;;;;;;;6.50;6.20;;;31.10;51.40;;;;;;5086625;28;20240;-65
2022/06/23 11:29:54;;;;;;;7.00;6.47;;;31.10;51.40;;;;;;5112949;28;20415;-65
2022/06/23 11:32:38;;;;;;;6.57;6.17;;;31.20;54.20;;;;;;5112925;28;20404;-65
2022/06/23 11:35:06;;;;;;;7.00;6.50;;;31.20;53.30;;;;;;5117161;28;20837;-65
2022/06/23 11:38:04;;;;;;;8.20;7.57;;;31.20;52.50;;;;;;5115210;28;21044;-66
2022/06/23 11:40:49;;;;;;;6.20;5.90;;;31.30;51.80;;;;;;5116560;28;20437;-66
2022/06/23 11:43:37;;;;;;;6.50;6.00;;;31.30;52.10;;;;;;5116947;28;20393;-65
2022/06/23 11:46:12;;;;;;;7.10;6.70;;;31.30;52.60;;;;;;5117051;28;20834;-66
2022/06/23 11:49:24;;;;;;;6.90;6.50;;;31.30;52.50;;;;;;5114233;28;20463;-65
2022/06/23 11:52:05;;;;;;;7.03;6.73;;;31.30;51.70;;;;;;5053164;28;20522;-65
2022/06/23 11:54:43;;;;;;;7.30;6.90;;;31.20;51.00;;;;;;5053109;28;20550;-66
2022/06/23 11:57:22;;;;;;;7.67;7.17;;;31.10;51.80;;;;;;5098091;28;20436;-65
2022/06/23 12:00:30;;;;;;;6.90;6.50;;;31.10;51.50;;;;;;5116188;28;20390;-66
2022/06/23 12:03:05;;;;;;;6.60;6.30;;;31.20;53.80;;;;;;5053568;28;20517;-65
2022/06/23 12:05:50;;;;;;;7.10;6.70;;;31.40;53.10;;;;;;5106892;28;20424;-67
2022/06/23 12:08:35;;;;;;;8.03;7.63;;;31.50;50.90;;;;;;5116268;28;20389;-65
2022/06/23 12:11:01;;;;;;;7.30;6.80;;;31.50;51.20;;;;;;5115557;28;20453;-65
2022/06/23 12:13:30;;;;;;;8.33;7.83;;;31.40;52.30;;;;;;5116343;28;20510;-65
2022/06/23 12:15:56;;;;;;;6.93;6.57;;;31.30;51.40;;;;;;5116500;28;20420;-65
2022/06/23 12:18:32;;;;;;;6.90;6.50;;;31.50;53.90;;;;;;5113554;28;20853;-66
2022/06/23 12:21:17;;;;;;;7.40;6.60;;;31.50;53.80;;;;;;5116478;28;20223;-65
2022/06/23 12:23:54;;;;;;;6.50;6.10;;;31.60;51.10;;;;;;5115659;28;20884;-65
2022/06/23 12:26:41;;;;;;;8.50;7.93;;;31.50;51.40;;;;;;5116161;28;20428;-65
2022/06/23 12:29:19;;;;;;;6.80;6.40;;;31.30;49.60;;;;;;5116322;28;20397;-65
2022/06/23 12:32:05;;;;;;;8.63;7.87;;;31.10;50.80;;;;;;5115473;28;20597;-65
2022/06/23 12:34:56;;;;;;;7.40;7.00;;;31.20;53.30;;;;;;5115896;28;20437;-65
2022/06/23 12:37:40;;;;;;;7.40;6.80;;;31.30;51.80;;;;;;5112345;28;20442;-65
2022/06/23 12:40:34;;;;;;;7.57;7.17;;;31.20;52.20;;;;;;5109400;28;20457;-65
2022/06/23 12:43:30;;;;;;;7.20;6.70;;;31.20;52.40;;;;;;5116052;28;20433;-65
2022/06/23 12:46:10;;;;;;;7.50;7.00;;;31.40;53.10;;;;;;5114603;28;20397;-65
2022/06/23 12:49:04;;;;;;;6.90;6.40;;;31.40;51.60;;;;;;5115390;28;20462;-66
2022/06/23 12:51:39;;;;;;;6.40;6.10;;;31.50;52.10;;;;;;5113799;28;20455;-65
2022/06/23 12:54:14;;;;;;;6.83;6.40;;;31.50;50.00;;;;;;5115469;28;20456;-65
2022/06/23 12:57:11;;;;;;;7.90;7.50;;;31.30;50.00;;;;;;5114959;28;20413;-65
2022/06/23 12:59:48;;;;;;;7.40;6.80;;;31.30;52.60;;;;;;5082928;28;20414;-65
2022/06/23 13:02:35;;;;;;;6.60;6.20;;;31.40;51.50;;;;;;5115536;28;20417;-65
2022/06/23 13:05:31;;;;;;;7.87;7.33;;;31.30;50.20;;;;;;5114115;28;20969;-65
2022/06/23 13:08:16;;;;;;;6.73;6.43;;;31.30;49.50;;;;;;5114631;28;20751;-65
2022/06/23 13:10:48;;;;;;;7.13;6.73;;;31.20;47.80;;;;;;5094395;28;20402;-65
2022/06/23 13:13:37;;;;;;;6.83;6.53;;;31.30;49.30;;;;;;5094722;28;20425;-65
2022/06/23 13:16:14;;;;;;;8.63;7.20;;;31.30;51.10;;;;;;5094372;28;20969;-66
2022/06/23 13:18:52;;;;;;;7.37;6.97;;;31.30;51.40;;;;;;5093924;28;20436;-66
2022/06/23 13:21:31;;;;;;;8.00;7.63;;;31.30;51.40;;;;;;5093066;28;21007;-65
2022/06/23 13:24:12;;;;;;;7.20;6.80;;;31.30;51.00;;;;;;5094116;28;20495;-65
2022/06/23 13:27:03;;;;;;;7.77;7.27;;;31.30;52.20;;;;;;5107054;28;20946;-65
2022/06/23 13:29:55;;;;;;;7.27;6.77;;;31.30;52.40;;;;;;5111294;28;20402;-67
2022/06/23 13:32:33;;;;;;;6.60;6.20;;;31.10;51.00;;;;;;5113388;28;20412;-67
2022/06/23 13:35:18;;;;;;;7.20;6.77;;;31.20;51.50;;;;;;5114344;28;20637;-65
2022/06/23 13:38:10;;;;;;;45.40;40.90;;;31.30;51.80;;;;;;5112933;27;20393;-65
2022/06/23 13:40:47;;;;;;;85.37;77.37;;;31.30;51.20;;;;;;5109239;28;20453;-65
2022/06/23 13:43:19;;;;;;;9.57;8.77;;;31.40;50.40;;;;;;5112277;28;20402;-69
2022/06/23 13:45:56;;;;;;;7.10;6.73;;;31.30;50.80;;;;;;5113398;27;20481;-66
2022/06/23 13:48:29;;;;;;;7.67;7.27;;;31.30;49.80;;;;;;5104513;28;20497;-66
2022/06/23 13:51:07;;;;;;;7.93;7.30;;;31.40;50.40;;;;;;5110935;28;20463;-65
2022/06/23 13:54:10;;;;;;;7.43;6.90;;;31.50;50.10;;;;;;5107100;27;20543;-67
2022/06/23 13:56:42;;;;;;;6.80;6.50;;;31.30;49.20;;;;;;5111821;27;20465;-71
2022/06/23 13:59:14;;;;;;;8.03;7.43;;;31.40;51.80;;;;;;5108949;27;20429;-66
2022/06/23 14:02:34;;;;;;;7.93;7.53;;;31.50;51.10;;;;;;5073868;27;20413;-66
2022/06/23 14:05:06;;;;;;;7.90;7.40;;;31.50;50.30;;;;;;5066906;28;20440;-65